createdAt,value
2023-05-06T00:01:43.684Z,95.50
2023-05-06T00:04:12.168Z,95.50
2023-05-06T00:06:41.703Z,95.50
2023-05-06T00:09:09.698Z,95.50
2023-05-06T00:11:39.054Z,95.50
2023-05-06T00:14:07.114Z,95.50
2023-05-06T00:16:35.133Z,95.50
2023-05-06T00:19:03.152Z,95.50
2023-05-06T00:21:31.261Z,95.50
2023-05-06T00:23:59.323Z,95.50
2023-05-06T00:26:27.403Z,95.50
2023-05-06T00:28:56.787Z,95.50
2023-05-06T00:31:24.853Z,95.50
2023-05-06T00:33:52.943Z,95.50
2023-05-06T00:36:21.024Z,95.50
2023-05-06T00:38:49.381Z,95.50
2023-05-06T00:41:17.337Z,95.50
2023-05-06T00:43:45.588Z,95.50
2023-05-06T00:46:17.446Z,95.50
2023-05-06T00:48:45.733Z,95.50
2023-05-06T00:51:14.304Z,95.50
2023-05-06T00:53:42.471Z,95.50
2023-05-06T00:56:10.486Z,95.50
2023-05-06T00:58:39.394Z,95.50
2023-05-06T01:01:08.317Z,95.50
2023-05-06T01:03:38.143Z,95.50
2023-05-06T01:06:15.005Z,95.50
2023-05-06T01:08:48.944Z,95.50
2023-05-06T01:11:24.258Z,95.50
2023-05-06T01:13:59.999Z,95.50
2023-05-06T01:16:30.848Z,95.50
2023-05-06T01:19:02.060Z,95.50
2023-05-06T01:21:34.956Z,95.50
2023-05-06T01:24:04.458Z,95.50
2023-05-06T01:26:32.496Z,95.50
2023-05-06T01:29:01.982Z,95.50
2023-05-06T01:31:37.249Z,95.50
2023-05-06T01:34:15.310Z,95.50
2023-05-06T01:36:50.693Z,95.50
2023-05-06T01:39:25.518Z,95.50
2023-05-06T01:41:57.303Z,95.50
2023-05-06T01:44:27.532Z,95.50
2023-05-06T01:46:57.199Z,95.50
2023-05-06T01:49:27.366Z,95.50
2023-05-06T01:51:55.329Z,95.50
2023-05-06T01:54:24.774Z,95.50
2023-05-06T01:56:53.848Z,95.50
2023-05-06T01:59:21.933Z,95.50
2023-05-06T02:01:49.973Z,95.50
2023-05-06T02:04:17.938Z,95.50
2023-05-06T02:06:45.913Z,95.50
2023-05-06T02:09:13.909Z,95.50
2023-05-06T02:11:43.282Z,95.50
2023-05-06T02:14:11.421Z,95.50
2023-05-06T02:16:39.556Z,95.50
2023-05-06T02:19:07.804Z,95.50
2023-05-06T02:21:35.860Z,95.50
2023-05-06T02:24:03.869Z,95.50
2023-05-06T02:26:31.890Z,95.50
2023-05-06T02:29:01.216Z,95.50
2023-05-06T02:31:29.197Z,95.50
2023-05-06T02:33:57.171Z,95.50
2023-05-06T02:36:25.159Z,95.50
2023-05-06T02:38:53.119Z,95.50
2023-05-06T02:41:21.308Z,95.50
2023-05-06T02:43:49.803Z,95.50
2023-05-06T02:46:38.870Z,95.50
2023-05-06T02:49:25.303Z,95.50
2023-05-06T02:51:53.263Z,95.50
2023-05-06T02:54:21.289Z,95.50
2023-05-06T02:56:49.267Z,95.50
2023-05-06T02:59:17.891Z,95.50
2023-05-06T03:01:47.208Z,95.50
2023-05-06T03:04:15.353Z,95.50
2023-05-06T03:06:43.417Z,95.50
2023-05-06T03:09:11.481Z,95.50
2023-05-06T03:11:39.481Z,95.50
2023-05-06T03:14:07.513Z,95.50
2023-05-06T03:16:35.625Z,95.50
2023-05-06T03:19:05.211Z,95.50
2023-05-06T03:21:33.501Z,95.50
2023-05-06T03:24:01.518Z,95.50
2023-05-06T03:26:29.617Z,95.50
2023-05-06T03:28:57.559Z,95.50
2023-05-06T03:31:25.880Z,95.50
2023-05-06T03:33:54.067Z,95.50
2023-05-06T03:36:25.230Z,95.50
2023-05-06T03:38:53.179Z,95.50
2023-05-06T03:41:21.300Z,95.50
2023-05-06T03:43:49.256Z,95.50
2023-05-06T03:46:17.241Z,95.50
2023-05-06T03:48:45.302Z,95.50
2023-05-06T03:51:13.333Z,95.50
2023-05-06T03:53:42.741Z,95.50
2023-05-06T03:56:10.795Z,95.50
2023-05-06T03:58:38.801Z,95.50
2023-05-06T04:01:06.788Z,95.50
2023-05-06T04:03:34.856Z,95.50
2023-05-06T04:06:03.013Z,95.50
2023-05-06T04:08:31.016Z,95.50
2023-05-06T04:11:05.296Z,95.50
2023-05-06T04:13:33.396Z,95.50
2023-05-06T04:16:01.413Z,95.50
2023-05-06T04:18:29.465Z,95.50
2023-05-06T04:20:57.449Z,95.50
2023-05-06T04:23:25.487Z,95.50
2023-05-06T04:25:53.471Z,95.50
2023-05-06T04:28:22.836Z,95.50
2023-05-06T04:30:50.873Z,95.50
2023-05-06T04:33:18.873Z,95.50
2023-05-06T04:35:53.138Z,95.50
2023-05-06T04:38:21.615Z,95.50
2023-05-06T04:40:49.692Z,95.50
2023-05-06T04:43:18.303Z,95.50
2023-05-06T04:45:49.543Z,95.50
2023-05-06T04:48:18.901Z,95.50
2023-05-06T04:50:47.598Z,95.50
2023-05-06T04:53:15.813Z,95.50
2023-05-06T04:55:44.062Z,95.50
2023-05-06T04:58:12.004Z,95.50
2023-05-06T05:00:40.275Z,95.50
2023-05-06T05:03:09.658Z,95.50
2023-05-06T05:05:37.734Z,95.50
2023-05-06T05:08:06.109Z,95.50
2023-05-06T05:10:34.158Z,95.50
2023-05-06T05:13:02.384Z,95.50
2023-05-06T05:15:30.449Z,95.50
2023-05-06T05:17:58.743Z,95.50
2023-05-06T05:20:28.130Z,95.50
2023-05-06T05:22:56.353Z,95.50
2023-05-06T05:25:24.324Z,95.50
2023-05-06T05:27:52.313Z,95.50
2023-05-06T05:30:20.688Z,95.50
2023-05-06T05:32:48.689Z,95.50
2023-05-06T05:35:16.701Z,95.50
2023-05-06T05:37:45.986Z,95.50
2023-05-06T05:40:14.552Z,95.50
2023-05-06T05:42:42.518Z,95.50
2023-05-06T05:45:11.438Z,95.50
2023-05-06T05:47:39.434Z,95.50
2023-05-06T05:50:08.862Z,95.50
2023-05-06T05:52:36.801Z,95.50
2023-05-06T05:55:07.309Z,95.50
2023-05-06T05:57:35.408Z,95.50
2023-05-06T06:00:03.480Z,95.50
2023-05-06T06:02:31.870Z,95.50
2023-05-06T06:04:59.912Z,95.50
2023-05-06T06:07:27.985Z,95.50
2023-05-06T06:09:55.992Z,95.50
2023-05-06T06:12:25.338Z,95.50
2023-05-06T06:14:53.318Z,95.50
2023-05-06T06:17:21.413Z,95.50
2023-05-06T06:19:50.632Z,95.50
2023-05-06T06:22:18.571Z,95.50
2023-05-06T06:24:46.520Z,95.50
2023-05-06T06:27:14.493Z,95.50
2023-05-06T06:29:43.805Z,95.50
2023-05-06T06:32:11.778Z,95.50
2023-05-06T06:34:39.806Z,95.50
2023-05-06T06:37:08.031Z,95.50
2023-05-06T06:39:36.134Z,95.50
2023-05-06T06:42:04.857Z,95.50
2023-05-06T06:44:32.800Z,95.50
2023-05-06T06:47:02.856Z,94.10
2023-05-06T06:49:31.624Z,94.10
2023-05-06T06:51:59.608Z,93.00
2023-05-06T06:54:27.795Z,93.00
2023-05-06T06:56:57.293Z,93.50
2023-05-06T06:59:25.405Z,93.40
2023-05-06T07:01:53.373Z,92.50
2023-05-06T07:04:22.723Z,94.10
2023-05-06T07:06:50.856Z,95.30
2023-05-06T07:09:18.849Z,92.50
2023-05-06T07:11:46.897Z,91.30
2023-05-06T07:14:14.945Z,93.00
2023-05-06T07:16:44.506Z,92.70
2023-05-06T07:19:13.930Z,93.20
2023-05-06T07:21:43.346Z,94.70
2023-05-06T07:24:11.436Z,95.50
2023-05-06T07:26:39.611Z,95.50
2023-05-06T07:29:07.616Z,95.00
2023-05-06T07:31:35.691Z,93.70
2023-05-06T07:34:03.709Z,91.70
2023-05-06T07:36:36.120Z,87.80
2023-05-06T07:39:07.298Z,84.10
2023-05-06T07:41:35.321Z,85.10
2023-05-06T07:44:03.778Z,83.20
2023-05-06T07:46:31.822Z,83.50
2023-05-06T07:49:00.041Z,86.60
2023-05-06T07:51:28.121Z,90.10
2023-05-06T07:53:56.197Z,91.80
2023-05-06T07:56:25.621Z,89.90
2023-05-06T07:58:53.620Z,87.70
2023-05-06T08:01:21.585Z,84.20
2023-05-06T08:03:49.637Z,82.40
2023-05-06T08:06:17.795Z,84.10
2023-05-06T08:08:46.552Z,84.60
2023-05-06T08:11:14.599Z,84.70
2023-05-06T08:13:43.888Z,82.60
2023-05-06T08:16:11.939Z,78.20
2023-05-06T08:18:40.028Z,76.90
2023-05-06T08:21:08.056Z,75.70
2023-05-06T08:23:36.052Z,78.40
2023-05-06T08:26:04.131Z,81.90
2023-05-06T08:28:32.456Z,83.20
2023-05-06T08:31:01.814Z,82.30
2023-05-06T08:33:31.229Z,79.80
2023-05-06T08:35:59.582Z,75.50
2023-05-06T08:38:27.975Z,72.20
2023-05-06T08:40:56.227Z,70.00
2023-05-06T08:43:28.451Z,68.80
2023-05-06T08:45:56.567Z,68.50
2023-05-06T08:48:26.032Z,66.50
2023-05-06T08:50:55.612Z,66.90
2023-05-06T08:53:23.884Z,66.30
2023-05-06T08:55:55.150Z,63.50
2023-05-06T08:58:26.067Z,62.30
2023-05-06T09:00:54.223Z,64.40
2023-05-06T09:03:22.340Z,69.60
2023-05-06T09:05:51.751Z,72.70
2023-05-06T09:08:19.705Z,75.70
2023-05-06T09:10:48.259Z,78.20
2023-05-06T09:13:17.559Z,79.80
2023-05-06T09:15:48.017Z,82.00
2023-05-06T09:18:16.828Z,83.20
2023-05-06T09:20:46.768Z,82.60
2023-05-06T09:23:17.567Z,81.10
2023-05-06T09:25:46.850Z,80.90
2023-05-06T09:28:15.679Z,81.30
2023-05-06T09:30:45.551Z,81.70
2023-05-06T09:33:13.946Z,81.30
2023-05-06T09:35:44.242Z,81.00
2023-05-06T09:38:12.309Z,80.10
2023-05-06T09:40:41.701Z,76.30
2023-05-06T09:43:10.607Z,73.20
2023-05-06T09:45:38.614Z,70.20
2023-05-06T09:48:09.195Z,67.30
2023-05-06T09:50:37.628Z,67.30
2023-05-06T09:53:06.600Z,69.20
2023-05-06T09:55:35.362Z,67.00
2023-05-06T09:58:06.366Z,67.60
2023-05-06T10:00:35.930Z,68.50
2023-05-06T10:03:05.932Z,67.20
2023-05-06T10:05:36.331Z,66.30
2023-05-06T10:08:04.875Z,66.40
2023-05-06T10:10:34.875Z,66.90
2023-05-06T10:13:05.380Z,66.30
2023-05-06T10:15:34.194Z,67.20
2023-05-06T10:18:02.994Z,66.60
2023-05-06T10:20:32.439Z,67.30
2023-05-06T10:23:06.803Z,69.60
2023-05-06T10:25:38.287Z,71.40
2023-05-06T10:28:11.131Z,71.80
2023-05-06T10:30:43.973Z,68.60
2023-05-06T10:33:13.188Z,67.20
2023-05-06T10:35:49.121Z,65.20
2023-05-06T10:38:21.880Z,63.70
2023-05-06T10:40:50.947Z,63.00
2023-05-06T10:43:28.940Z,65.70
2023-05-06T10:46:01.630Z,64.70
2023-05-06T10:48:30.097Z,63.80
2023-05-06T10:51:28.872Z,65.60
2023-05-06T10:54:02.398Z,65.00
2023-05-06T10:56:32.213Z,64.10
2023-05-06T10:59:08.078Z,64.00
2023-05-06T11:01:37.298Z,64.40
2023-05-06T11:04:13.409Z,64.90
2023-05-06T11:06:42.742Z,64.90
2023-05-06T11:09:18.033Z,65.80
2023-05-06T11:12:01.749Z,66.60
2023-05-06T11:14:32.436Z,68.60
2023-05-06T11:17:01.532Z,68.70
2023-05-06T11:19:34.373Z,67.60
2023-05-06T11:22:06.316Z,66.60
2023-05-06T11:24:40.843Z,67.70
2023-05-06T11:27:09.765Z,70.10
2023-05-06T11:29:44.387Z,71.70
2023-05-06T11:32:23.822Z,73.00
2023-05-06T11:34:56.090Z,75.70
2023-05-06T11:37:32.824Z,75.70
2023-05-06T11:40:00.930Z,74.90
2023-05-06T11:42:29.808Z,74.50
2023-05-06T11:45:01.989Z,73.00
2023-05-06T11:47:31.409Z,71.40
2023-05-06T11:49:59.934Z,71.40
2023-05-06T11:52:27.998Z,70.70
2023-05-06T11:54:55.972Z,70.10
2023-05-06T11:57:23.992Z,70.60
2023-05-06T11:59:55.539Z,69.80
2023-05-06T12:02:25.043Z,68.40
2023-05-06T12:04:53.433Z,68.10
2023-05-06T12:07:21.512Z,69.20
2023-05-06T12:09:51.531Z,69.20
2023-05-06T12:12:22.297Z,69.00
2023-05-06T12:14:51.302Z,69.70
2023-05-06T12:17:20.226Z,70.70
2023-05-06T12:19:49.640Z,71.80
2023-05-06T12:22:19.270Z,72.60
2023-05-06T12:24:47.949Z,72.70
2023-05-06T12:27:16.134Z,72.30
2023-05-06T12:29:53.293Z,73.40
2023-05-06T12:32:21.297Z,74.50
2023-05-06T12:34:50.685Z,73.40
2023-05-06T12:37:26.339Z,73.30
2023-05-06T12:39:56.336Z,72.50
2023-05-06T12:42:26.379Z,72.90
2023-05-06T12:44:54.470Z,72.70
2023-05-06T12:47:24.019Z,72.90
2023-05-06T12:49:54.812Z,73.70
2023-05-06T12:52:24.025Z,73.40
2023-05-06T12:54:53.128Z,72.90
2023-05-06T12:57:21.495Z,72.20
2023-05-06T12:59:50.724Z,72.00
2023-05-06T13:02:19.005Z,70.20
2023-05-06T13:04:47.192Z,68.00
2023-05-06T13:07:16.498Z,66.50
2023-05-06T13:09:44.838Z,67.80
2023-05-06T13:12:13.072Z,67.90
2023-05-06T13:14:41.053Z,68.40
2023-05-06T13:17:09.399Z,69.80
2023-05-06T13:19:37.702Z,68.50
2023-05-06T13:22:05.758Z,68.60
2023-05-06T13:24:35.092Z,68.30
2023-05-06T13:27:03.225Z,68.50
2023-05-06T13:29:31.838Z,68.30
2023-05-06T13:32:00.704Z,68.20
2023-05-06T13:34:29.225Z,68.00
2023-05-06T13:36:57.470Z,68.20
2023-05-06T13:39:25.488Z,68.50
2023-05-06T13:41:55.150Z,67.60
2023-05-06T13:44:24.467Z,66.30
2023-05-06T13:46:52.534Z,65.80
2023-05-06T13:49:20.774Z,66.30
2023-05-06T13:51:48.941Z,67.20
2023-05-06T13:54:17.034Z,68.50
2023-05-06T13:56:45.048Z,68.40
2023-05-06T13:59:14.347Z,67.40
2023-05-06T14:01:43.106Z,67.40
2023-05-06T14:04:11.154Z,66.90
2023-05-06T14:06:39.203Z,65.90
2023-05-06T14:09:07.124Z,65.10
2023-05-06T14:11:35.194Z,64.30
2023-05-06T14:14:03.577Z,63.90
2023-05-06T14:16:33.023Z,64.00
2023-05-06T14:19:01.065Z,64.60
2023-05-06T14:21:29.060Z,66.30
2023-05-06T14:23:57.287Z,66.60
2023-05-06T14:26:25.526Z,66.00
2023-05-06T14:28:53.521Z,66.00
2023-05-06T14:31:21.571Z,66.30
2023-05-06T14:33:50.880Z,65.70
2023-05-06T14:36:19.753Z,65.30
2023-05-06T14:38:47.700Z,64.80
2023-05-06T14:41:15.667Z,65.30
2023-05-06T14:43:43.618Z,66.00
2023-05-06T14:46:11.838Z,65.70
2023-05-06T14:48:39.902Z,65.80
2023-05-06T14:51:09.289Z,65.30
2023-05-06T14:53:37.315Z,64.80
2023-05-06T14:56:08.200Z,64.70
2023-05-06T14:58:36.177Z,63.90
2023-05-06T15:01:04.190Z,63.90
2023-05-06T15:03:32.203Z,63.70
2023-05-06T15:06:00.730Z,64.00
2023-05-06T15:08:30.122Z,64.60
2023-05-06T15:10:58.104Z,64.80
2023-05-06T15:13:26.237Z,65.10
2023-05-06T15:15:54.200Z,64.80
2023-05-06T15:18:22.314Z,65.30
2023-05-06T15:20:50.841Z,65.20
2023-05-06T15:23:22.368Z,64.80
2023-05-06T15:25:51.831Z,64.30
2023-05-06T15:28:20.593Z,64.70
2023-05-06T15:30:49.791Z,65.20
2023-05-06T15:33:17.783Z,65.00
2023-05-06T15:35:46.129Z,65.50
2023-05-06T15:38:14.103Z,65.70
2023-05-06T15:40:42.514Z,65.60
2023-05-06T15:43:15.596Z,65.70
2023-05-06T15:45:48.468Z,65.60
2023-05-06T15:48:16.450Z,65.50
2023-05-06T15:50:44.387Z,65.00
2023-05-06T15:53:12.786Z,64.30
2023-05-06T15:55:44.498Z,64.30
2023-05-06T15:58:18.660Z,64.80
2023-05-06T16:00:47.153Z,65.00
2023-05-06T16:03:15.214Z,64.90
2023-05-06T16:05:43.394Z,65.50
2023-05-06T16:08:11.365Z,65.50
2023-05-06T16:10:39.384Z,65.70
2023-05-06T16:13:07.316Z,66.40
2023-05-06T16:15:36.729Z,66.70
2023-05-06T16:18:05.273Z,66.30
2023-05-06T16:20:33.507Z,65.90
2023-05-06T16:23:01.736Z,65.50
2023-05-06T16:25:31.019Z,65.20
2023-05-06T16:27:59.000Z,65.50
2023-05-06T16:30:27.077Z,65.40
2023-05-06T16:32:56.465Z,65.40
2023-05-06T16:35:24.684Z,65.30
2023-05-06T16:37:52.629Z,65.10
2023-05-06T16:40:21.829Z,64.90
2023-05-06T16:42:55.324Z,65.00
2023-05-06T16:45:23.295Z,65.00
2023-05-06T16:47:51.386Z,65.30
2023-05-06T16:50:20.986Z,64.60
2023-05-06T16:52:48.981Z,64.70
2023-05-06T16:55:17.098Z,64.40
2023-05-06T16:57:45.108Z,64.90
2023-05-06T17:00:14.042Z,65.20
2023-05-06T17:02:42.373Z,65.10
2023-05-06T17:05:10.948Z,65.10
2023-05-06T17:07:40.356Z,65.50
2023-05-06T17:10:09.501Z,65.60
2023-05-06T17:12:38.012Z,66.10
2023-05-06T17:15:07.074Z,66.30
2023-05-06T17:17:35.184Z,66.40
2023-05-06T17:20:05.196Z,67.30
2023-05-06T17:22:33.183Z,67.60
2023-05-06T17:25:02.591Z,68.00
2023-05-06T17:27:30.570Z,68.40
2023-05-06T17:29:59.546Z,68.40
2023-05-06T17:32:27.531Z,68.70
2023-05-06T17:34:55.933Z,69.20
2023-05-06T17:37:23.899Z,69.50
2023-05-06T17:39:52.379Z,70.80
2023-05-06T17:42:21.661Z,72.00
2023-05-06T17:44:49.719Z,72.30
2023-05-06T17:47:17.746Z,72.30
2023-05-06T17:49:45.976Z,72.60
2023-05-06T17:52:14.044Z,73.00
2023-05-06T17:54:42.077Z,73.30
2023-05-06T17:57:10.195Z,73.60
2023-05-06T17:59:39.481Z,73.90
2023-05-06T18:02:10.133Z,74.30
2023-05-06T18:04:38.321Z,74.60
2023-05-06T18:07:06.392Z,75.00
2023-05-06T18:09:34.602Z,75.50
2023-05-06T18:12:02.618Z,75.90
2023-05-06T18:14:30.832Z,76.20
2023-05-06T18:17:00.312Z,76.40
2023-05-06T18:19:29.283Z,77.00
2023-05-06T18:21:57.282Z,77.50
2023-05-06T18:24:25.562Z,77.70
2023-05-06T18:26:53.605Z,78.00
2023-05-06T18:29:21.584Z,78.30
2023-05-06T18:31:50.179Z,78.70
2023-05-06T18:34:19.512Z,79.00
2023-05-06T18:36:47.467Z,79.40
2023-05-06T18:39:15.509Z,79.90
2023-05-06T18:41:44.385Z,80.30
2023-05-06T18:44:12.360Z,80.50
2023-05-06T18:46:40.496Z,81.20
2023-05-06T18:49:08.547Z,81.40
2023-05-06T18:51:38.974Z,81.70
2023-05-06T18:54:08.215Z,82.00
2023-05-06T18:56:36.647Z,82.30
2023-05-06T18:59:04.779Z,83.20
2023-05-06T19:01:32.847Z,82.80
2023-05-06T19:04:00.871Z,83.20
2023-05-06T19:06:29.351Z,83.80
2023-05-06T19:08:58.622Z,84.00
2023-05-06T19:11:26.554Z,84.40
2023-05-06T19:13:56.855Z,84.80
2023-05-06T19:16:24.920Z,85.10
2023-05-06T19:18:52.885Z,85.00
2023-05-06T19:21:21.673Z,85.20
2023-05-06T19:23:49.637Z,85.40
2023-05-06T19:26:18.966Z,85.60
2023-05-06T19:28:46.932Z,85.90
2023-05-06T19:31:15.139Z,86.20
2023-05-06T19:33:44.099Z,86.50
2023-05-06T19:36:12.278Z,86.50
2023-05-06T19:38:40.204Z,86.80
2023-05-06T19:41:08.489Z,87.10
2023-05-06T19:43:41.915Z,87.10
2023-05-06T19:46:10.371Z,87.40
2023-05-06T19:48:38.971Z,87.30
2023-05-06T19:51:08.086Z,87.70
2023-05-06T19:53:37.680Z,88.10
2023-05-06T19:56:12.492Z,88.60
2023-05-06T19:58:42.016Z,88.60
2023-05-06T20:01:10.116Z,88.80
2023-05-06T20:03:38.597Z,89.00
2023-05-06T20:06:07.410Z,89.30
2023-05-06T20:08:35.666Z,90.00
2023-05-06T20:11:03.689Z,90.80
2023-05-06T20:13:31.815Z,91.00
2023-05-06T20:16:01.963Z,91.40
2023-05-06T20:18:32.128Z,92.10
2023-05-06T20:21:00.212Z,92.30
2023-05-06T20:23:28.172Z,92.30
2023-05-06T20:25:56.263Z,92.70
2023-05-06T20:28:24.187Z,93.30
2023-05-06T20:30:52.319Z,93.50
2023-05-06T20:33:22.182Z,93.60
2023-05-06T20:35:50.983Z,93.40
2023-05-06T20:38:19.372Z,93.10
2023-05-06T20:40:48.460Z,93.60
2023-05-06T20:43:16.509Z,94.00
2023-05-06T20:45:44.548Z,93.90
2023-05-06T20:48:14.879Z,94.30
2023-05-06T20:50:44.773Z,94.90
2023-05-06T20:53:12.836Z,94.90
2023-05-06T20:55:40.959Z,95.20
2023-05-06T20:58:09.024Z,95.00
2023-05-06T21:00:36.985Z,95.20
2023-05-06T21:03:05.235Z,95.50
2023-05-06T21:05:33.727Z,95.50
2023-05-06T21:08:03.086Z,95.50
2023-05-06T21:10:31.221Z,95.50
2023-05-06T21:12:59.447Z,95.50
2023-05-06T21:15:27.432Z,95.50
2023-05-06T21:17:55.956Z,95.50
2023-05-06T21:20:24.008Z,95.50
2023-05-06T21:22:52.007Z,95.50
2023-05-06T21:25:21.629Z,95.50
2023-05-06T21:27:49.630Z,95.50
2023-05-06T21:30:17.610Z,95.50
2023-05-06T21:32:46.507Z,95.50
2023-05-06T21:35:14.570Z,95.50
2023-05-06T21:37:42.601Z,95.50
2023-05-06T21:40:12.016Z,95.50
2023-05-06T21:42:41.448Z,95.50
2023-05-06T21:45:11.335Z,95.50
2023-05-06T21:47:39.571Z,95.50
2023-05-06T21:50:10.519Z,95.50
2023-05-06T21:52:38.692Z,95.50
2023-05-06T21:55:07.938Z,95.50
2023-05-06T21:57:36.205Z,95.50
2023-05-06T22:00:11.573Z,95.50
2023-05-06T22:02:40.074Z,95.50
2023-05-06T22:05:09.053Z,95.50
2023-05-06T22:07:37.429Z,95.50
2023-05-06T22:10:06.437Z,95.50
2023-05-06T22:12:36.358Z,95.50
2023-05-06T22:15:07.349Z,95.50
2023-05-06T22:17:35.680Z,95.50
2023-05-06T22:20:06.771Z,95.50
2023-05-06T22:22:35.254Z,95.50
2023-05-06T22:25:04.082Z,95.50
2023-05-06T22:27:32.298Z,95.50
2023-05-06T22:30:00.440Z,95.50
2023-05-06T22:32:29.963Z,95.50
2023-05-06T22:34:57.991Z,95.50
2023-05-06T22:37:26.557Z,95.50
2023-05-06T22:39:56.880Z,95.50
2023-05-06T22:42:25.495Z,95.50
2023-05-06T22:44:53.525Z,95.50
2023-05-06T22:47:21.608Z,95.50
2023-05-06T22:49:51.070Z,95.50
2023-05-06T22:52:20.224Z,95.50
2023-05-06T22:54:48.357Z,95.50
2023-05-06T22:57:16.418Z,95.50
2023-05-06T22:59:44.519Z,95.50
2023-05-06T23:02:12.526Z,95.50
2023-05-06T23:04:40.574Z,95.50
2023-05-06T23:07:09.976Z,95.50
2023-05-06T23:09:37.927Z,95.50
2023-05-06T23:12:06.354Z,95.50
2023-05-06T23:14:34.316Z,95.50
2023-05-06T23:17:02.320Z,95.50
2023-05-06T23:19:30.460Z,95.50
2023-05-06T23:21:58.589Z,95.50
2023-05-06T23:24:27.917Z,95.50
2023-05-06T23:26:56.001Z,95.50
2023-05-06T23:29:24.022Z,95.50
2023-05-06T23:31:52.036Z,95.50
2023-05-06T23:34:20.022Z,95.50
2023-05-06T23:36:48.068Z,95.50
2023-05-06T23:39:16.133Z,95.50
2023-05-06T23:41:45.448Z,95.50
2023-05-06T23:44:13.486Z,95.50
2023-05-06T23:46:41.528Z,95.50
2023-05-06T23:49:10.235Z,95.50
2023-05-06T23:51:38.387Z,95.50
2023-05-06T23:54:06.373Z,95.50
2023-05-06T23:56:34.389Z,95.50
2023-05-06T23:59:04.026Z,95.50
